Time;durP1;ratioP1;P1;durP2;ratioP2;P2;SDS_P1;SDS_P2;PMS_P1;PMS_P2;Temp;Humidity;BMP_temperature;BMP_pressure;BME280_temperature;BME280_humidity;BME280_pressure;Samples;Min_cycle;Max_cycle;Signal;HPM_P1;HPM_P2
2022/06/05 00:01:09;;;;;;;14.73;9.90;;;19.40;1.00;;;;;;5068003;28;20840;-63
2022/06/05 00:04:00;;;;;;;14.65;10.32;;;19.50;1.00;;;;;;5040882;28;20411;-63
2022/06/05 00:06:50;;;;;;;14.32;10.00;;;19.50;1.00;;;;;;5060732;28;20527;-63
2022/06/05 00:09:34;;;;;;;15.77;11.00;;;19.50;1.00;;;;;;5068295;28;20470;-63
2022/06/05 00:12:19;;;;;;;16.08;10.52;;;19.50;1.00;;;;;;5059122;28;20391;-63
2022/06/05 00:14:45;;;;;;;16.83;11.48;;;19.50;1.00;;;;;;5057348;28;20468;-62
2022/06/05 00:17:20;;;;;;;16.08;11.10;;;19.50;1.00;;;;;;5068512;28;20410;-64
2022/06/05 00:19:50;;;;;;;15.23;10.65;;;19.40;1.00;;;;;;5056979;28;20387;-59
2022/06/05 00:22:16;;;;;;;15.00;10.23;;;19.20;1.00;;;;;;5061744;28;20405;-63
2022/06/05 00:24:41;;;;;;;15.15;10.68;;;19.20;1.00;;;;;;5064888;28;20380;-57
2022/06/05 00:27:36;;;;;;;14.40;10.88;;;19.10;1.00;;;;;;5053861;28;20452;-61
2022/06/05 00:30:04;;;;;;;14.10;11.30;;;19.00;1.00;;;;;;5062496;28;20991;-62
2022/06/05 00:32:38;;;;;;;16.98;11.07;;;18.90;1.00;;;;;;5063709;28;20411;-62
2022/06/05 00:35:10;;;;;;;15.70;11.10;;;19.00;1.00;;;;;;5054473;28;20374;-62
2022/06/05 00:38:09;;;;;;;16.10;10.95;;;19.10;1.00;;;;;;5067025;28;20858;-61
2022/06/05 00:40:46;;;;;;;13.63;10.20;;;19.20;1.00;;;;;;5063952;28;20802;-63
2022/06/05 00:43:15;;;;;;;16.70;11.43;;;19.30;1.00;;;;;;5054771;28;20858;-62
2022/06/05 00:45:41;;;;;;;13.98;11.18;;;19.30;1.00;;;;;;5066253;28;20441;-60
2022/06/05 00:48:11;;;;;;;15.60;10.73;;;19.40;1.00;;;;;;5041828;28;20388;-62
2022/06/05 00:50:37;;;;;;;15.87;10.77;;;19.40;1.00;;;;;;5058663;28;20381;-63
2022/06/05 00:53:06;;;;;;;15.75;10.80;;;19.40;1.00;;;;;;5066365;28;20997;-63
2022/06/05 00:55:38;;;;;;;14.70;9.98;;;19.50;1.00;;;;;;5039375;28;20391;-62
2022/06/05 00:58:05;;;;;;;15.25;10.90;;;19.40;1.00;;;;;;5062551;28;20876;-62
2022/06/05 01:00:37;;;;;;;15.20;10.40;;;19.40;1.00;;;;;;5063107;28;20384;-62
2022/06/05 01:03:07;;;;;;;15.50;10.63;;;19.40;1.00;;;;;;5035085;28;21004;-62
2022/06/05 01:05:33;;;;;;;16.45;10.90;;;19.30;1.00;;;;;;5039080;28;20408;-62
2022/06/05 01:07:59;;;;;;;14.68;11.00;;;19.20;1.00;;;;;;5062762;28;20389;-62
2022/06/05 01:10:38;;;;;;;14.83;10.70;;;19.20;1.00;;;;;;5061703;28;20395;-62
2022/06/05 01:13:25;;;;;;;17.13;10.70;;;19.20;1.00;;;;;;5053347;28;20461;-62
2022/06/05 01:16:00;;;;;;;17.10;10.80;;;19.30;1.00;;;;;;5050142;28;20391;-62
2022/06/05 01:18:57;;;;;;;16.60;11.35;;;19.30;1.00;;;;;;5050804;28;20381;-62
2022/06/05 01:21:32;;;;;;;16.58;11.80;;;19.00;1.00;;;;;;5050985;28;20723;-59
2022/06/05 01:24:29;;;;;;;14.27;11.20;;;18.90;1.00;;;;;;5049619;28;20413;-63
2022/06/05 01:27:06;;;;;;;15.15;10.73;;;18.90;1.00;;;;;;5049008;28;20909;-62
2022/06/05 01:29:41;;;;;;;15.07;10.90;;;19.10;1.00;;;;;;5050769;28;20802;-63
2022/06/05 01:32:12;;;;;;;16.50;12.10;;;19.10;1.00;;;;;;5049802;28;20423;-61
2022/06/05 01:34:57;;;;;;;14.77;11.15;;;19.10;1.00;;;;;;5051132;28;20455;-64
2022/06/05 01:37:46;;;;;;;14.45;10.30;;;19.20;1.00;;;;;;5050741;28;20902;-63
2022/06/05 01:40:19;;;;;;;15.50;10.98;;;19.30;1.00;;;;;;5050573;28;20380;-64
2022/06/05 01:42:49;;;;;;;15.90;11.27;;;19.40;1.00;;;;;;5050172;28;20385;-57
2022/06/05 01:45:35;;;;;;;15.38;10.63;;;19.50;1.00;;;;;;5050969;28;20904;-63
2022/06/05 01:48:05;;;;;;;14.18;10.77;;;19.50;1.00;;;;;;5049756;28;20382;-63
2022/06/05 01:50:42;;;;;;;15.57;10.85;;;19.50;1.00;;;;;;5050434;28;20378;-63
2022/06/05 01:53:18;;;;;;;14.35;10.57;;;19.50;1.00;;;;;;5049581;28;20504;-63
2022/06/05 01:56:03;;;;;;;15.50;11.00;;;19.50;1.00;;;;;;5050255;28;20397;-57
2022/06/05 01:58:49;;;;;;;15.32;10.60;;;19.50;1.00;;;;;;5050346;28;20385;-65
2022/06/05 02:01:41;;;;;;;14.65;11.20;;;19.40;1.00;;;;;;5050148;28;20440;-63
2022/06/05 02:04:09;;;;;;;15.23;11.30;;;19.30;1.00;;;;;;5049465;28;20386;-63
2022/06/05 02:06:41;;;;;;;14.55;11.30;;;19.30;1.00;;;;;;5050001;28;20405;-63
2022/06/05 02:09:13;;;;;;;16.70;11.32;;;19.50;1.00;;;;;;5049312;28;20403;-65
2022/06/05 02:11:39;;;;;;;18.15;10.90;;;19.50;1.00;;;;;;5049894;28;20381;-64
2022/06/05 02:14:09;;;;;;;17.00;12.07;;;19.50;1.00;;;;;;5049183;28;20911;-62
2022/06/05 02:16:37;;;;;;;15.50;11.82;;;19.50;1.00;;;;;;5049849;28;20385;-63
2022/06/05 02:19:09;;;;;;;17.00;11.52;;;19.30;1.00;;;;;;5049226;28;20535;-63
2022/06/05 02:21:37;;;;;;;15.52;11.73;;;19.20;1.00;;;;;;5049650;28;20377;-63
2022/06/05 02:24:04;;;;;;;16.17;11.98;;;19.10;1.00;;;;;;5048932;28;20408;-63
2022/06/05 02:26:30;;;;;;;18.33;12.50;;;19.10;1.00;;;;;;5049484;28;20426;-63
2022/06/05 02:28:56;;;;;;;16.10;12.45;;;19.20;1.00;;;;;;5048859;28;20392;-63
2022/06/05 02:31:58;;;;;;;17.35;11.68;;;19.20;1.00;;;;;;5049791;28;20392;-63
2022/06/05 02:34:31;;;;;;;16.73;12.95;;;19.30;1.00;;;;;;5031894;28;20388;-63
2022/06/05 02:37:28;;;;;;;15.45;12.10;;;19.20;1.00;;;;;;5048871;28;20373;-62
2022/06/05 02:40:15;;;;;;;17.10;12.80;;;19.20;1.00;;;;;;5049005;28;20859;-64
2022/06/05 02:43:10;;;;;;;16.50;12.43;;;19.20;1.00;;;;;;5049298;28;20855;-62
2022/06/05 02:45:36;;;;;;;17.10;12.37;;;19.30;1.00;;;;;;5049592;28;20389;-63
2022/06/05 02:48:09;;;;;;;17.23;12.40;;;19.20;1.00;;;;;;5048765;28;20390;-63
2022/06/05 02:51:01;;;;;;;17.75;12.50;;;19.10;1.00;;;;;;5049520;28;20439;-63
2022/06/05 02:53:27;;;;;;;17.87;13.17;;;19.00;1.00;;;;;;5049358;28;20864;-64
2022/06/05 02:55:54;;;;;;;16.65;12.98;;;19.10;1.00;;;;;;5048858;28;20476;-64
2022/06/05 02:58:19;;;;;;;19.73;13.98;;;19.20;1.00;;;;;;5049471;28;20450;-65
2022/06/05 03:03:27;;;;;;;18.00;13.40;;;19.30;1.00;;;;;;5048901;28;20457;-57
2022/06/05 03:03:31;;;;;;;17.60;12.90;;;19.20;1.00;;;;;;5048986;28;20858;-63
2022/06/05 03:06:00;;;;;;;18.08;13.60;;;19.10;1.00;;;;;;5048563;28;20405;-63
2022/06/05 03:08:26;;;;;;;18.02;12.60;;;19.10;1.00;;;;;;5049098;28;20863;-64
2022/06/05 03:10:52;;;;;;;18.38;13.10;;;19.00;1.00;;;;;;5048317;28;20388;-63
2022/06/05 03:13:18;;;;;;;16.95;12.38;;;19.00;1.00;;;;;;5049313;28;20461;-63
2022/06/05 03:15:44;;;;;;;16.70;13.23;;;18.90;1.00;;;;;;5049226;28;20432;-63
2022/06/05 03:18:13;;;;;;;18.05;13.80;;;18.90;1.00;;;;;;5048488;28;20472;-62
2022/06/05 03:20:38;;;;;;;17.73;13.30;;;18.90;1.00;;;;;;5049297;28;20446;-61
2022/06/05 03:23:04;;;;;;;17.00;13.63;;;18.90;1.00;;;;;;5047843;28;20475;-63
2022/06/05 03:25:30;;;;;;;18.58;14.35;;;19.00;1.00;;;;;;5048968;28;20882;-63
2022/06/05 03:27:57;;;;;;;18.00;13.60;;;19.10;1.00;;;;;;5052562;28;20764;-63
2022/06/05 03:30:22;;;;;;;17.58;13.40;;;19.10;1.00;;;;;;5053249;28;20392;-63
2022/06/05 03:32:48;;;;;;;19.60;14.33;;;19.10;1.00;;;;;;5052507;28;20743;-57
2022/06/05 03:35:15;;;;;;;17.90;13.07;;;19.30;1.00;;;;;;5052665;28;20381;-64
2022/06/05 03:37:40;;;;;;;17.33;13.20;;;19.00;1.00;;;;;;5034866;28;20763;-62
2022/06/05 03:40:12;;;;;;;16.58;13.15;;;18.90;1.00;;;;;;5052141;28;20381;-64
2022/06/05 03:42:38;;;;;;;16.70;13.43;;;19.00;1.00;;;;;;5053220;28;20933;-64
2022/06/05 03:45:04;;;;;;;20.73;13.30;;;19.10;1.00;;;;;;5052023;28;20465;-63
2022/06/05 03:47:29;;;;;;;18.70;13.73;;;19.10;1.00;;;;;;5052693;28;20405;-64
2022/06/05 03:49:55;;;;;;;17.67;12.90;;;18.90;1.00;;;;;;5051874;28;20400;-63
2022/06/05 03:52:21;;;;;;;18.27;14.10;;;18.90;20.60;;;;;;5052224;28;20902;-63
2022/06/05 03:54:46;;;;;;;18.30;13.63;;;18.80;25.00;;;;;;5052258;28;20385;-58
2022/06/05 03:57:12;;;;;;;18.67;14.50;;;18.80;36.10;;;;;;5052212;28;20390;-63
2022/06/05 03:59:37;;;;;;;21.17;14.17;;;18.70;99.90;;;;;;5052376;28;20707;-63
2022/06/05 04:02:05;;;;;;;19.95;13.82;;;18.50;99.90;;;;;;5051705;28;20390;-63
2022/06/05 04:04:31;;;;;;;18.83;13.90;;;18.40;99.90;;;;;;5052734;28;20904;-63
2022/06/05 04:06:57;;;;;;;19.38;14.85;;;18.40;99.90;;;;;;5051685;28;20428;-64
2022/06/05 04:09:23;;;;;;;20.38;13.93;;;18.50;99.90;;;;;;5052178;28;20858;-63
2022/06/05 04:11:49;;;;;;;19.55;15.20;;;18.70;99.90;;;;;;5034038;28;20757;-57
2022/06/05 04:14:14;;;;;;;19.75;14.68;;;18.70;99.90;;;;;;5052124;28;20470;-63
2022/06/05 04:16:41;;;;;;;19.60;14.50;;;18.70;99.90;;;;;;5052333;28;20385;-63
2022/06/05 04:19:07;;;;;;;18.90;14.38;;;18.70;99.90;;;;;;5051706;28;20439;-63
2022/06/05 04:21:36;;;;;;;20.60;15.00;;;18.80;99.90;;;;;;5052059;28;20477;-61
2022/06/05 04:24:02;;;;;;;20.30;13.77;;;18.90;99.90;;;;;;5050930;28;20420;-60
2022/06/05 04:26:31;;;;;;;19.10;13.77;;;19.10;99.90;;;;;;5052182;28;20407;-61
2022/06/05 04:28:57;;;;;;;19.17;15.20;;;19.00;99.90;;;;;;5050785;28;20400;-61
2022/06/05 04:31:28;;;;;;;21.25;14.73;;;18.80;99.90;;;;;;5051894;28;20807;-60
2022/06/05 04:33:56;;;;;;;20.63;14.80;;;18.80;99.90;;;;;;5051286;28;20401;-60
2022/06/05 04:36:22;;;;;;;18.95;14.50;;;18.80;99.90;;;;;;5052341;28;21245;-59
2022/06/05 04:38:48;;;;;;;19.63;14.73;;;18.90;99.90;;;;;;5032250;28;20464;-57
2022/06/05 04:41:15;;;;;;;20.95;15.65;;;18.80;99.90;;;;;;5051258;28;20435;-60
2022/06/05 04:43:41;;;;;;;21.97;16.33;;;18.70;99.90;;;;;;5051703;28;20423;-60
2022/06/05 04:46:08;;;;;;;21.30;16.60;;;18.80;99.90;;;;;;5051025;28;21174;-60
2022/06/05 04:48:34;;;;;;;22.35;17.42;;;18.60;99.90;;;;;;5051878;28;20445;-61
2022/06/05 04:51:03;;;;;;;24.75;18.02;;;18.40;99.90;;;;;;5050626;28;20392;-61
2022/06/05 04:53:29;;;;;;;23.45;18.08;;;18.30;99.90;;;;;;5051485;28;20495;-61
2022/06/05 04:55:55;;;;;;;24.77;17.77;;;18.30;99.90;;;;;;5050991;28;20489;-59
2022/06/05 04:58:20;;;;;;;25.77;17.80;;;18.40;99.90;;;;;;5051628;28;20413;-61
2022/06/05 05:00:46;;;;;;;23.83;17.95;;;18.40;99.90;;;;;;5051233;28;20384;-61
2022/06/05 05:03:11;;;;;;;24.00;17.98;;;18.30;99.90;;;;;;5032907;28;20400;-61
2022/06/05 05:05:37;;;;;;;25.20;18.63;;;18.40;99.90;;;;;;5051092;28;20427;-60
2022/06/05 05:08:03;;;;;;;26.20;20.23;;;18.50;99.90;;;;;;5050227;28;20385;-60
2022/06/05 05:10:29;;;;;;;26.15;19.00;;;18.50;99.90;;;;;;5051390;28;20401;-60
2022/06/05 05:12:54;;;;;;;22.83;18.33;;;18.50;99.90;;;;;;5050320;28;20388;-61
2022/06/05 05:15:20;;;;;;;26.53;17.50;;;18.50;99.90;;;;;;5050838;28;20424;-61
2022/06/05 05:17:46;;;;;;;23.90;17.48;;;18.50;99.90;;;;;;5050344;28;20810;-60
2022/06/05 05:20:13;;;;;;;27.45;18.13;;;18.50;99.90;;;;;;5037833;28;20512;-59
2022/06/05 05:22:39;;;;;;;26.48;18.15;;;18.30;99.90;;;;;;5045283;28;20414;-59
2022/06/05 05:25:08;;;;;;;23.80;16.83;;;18.40;99.90;;;;;;5046295;28;20782;-59
2022/06/05 05:27:35;;;;;;;26.63;17.40;;;18.40;99.90;;;;;;5050675;28;20401;-59
2022/06/05 05:30:02;;;;;;;24.00;17.57;;;18.50;99.90;;;;;;5050270;28;20854;-60
2022/06/05 05:32:28;;;;;;;23.58;16.85;;;18.60;99.90;;;;;;5050884;28;20390;-59
2022/06/05 05:34:53;;;;;;;22.35;17.15;;;18.80;99.90;;;;;;5045322;28;20445;-58
2022/06/05 05:37:19;;;;;;;22.47;16.47;;;18.70;99.90;;;;;;5030655;28;20772;-57
2022/06/05 05:42:30;;;;;;;24.30;17.88;;;18.40;99.90;;;;;;5050548;28;20380;-60
2022/06/05 05:44:56;;;;;;;26.00;18.40;;;18.40;99.90;;;;;;5049744;28;20412;-58
2022/06/05 05:47:24;;;;;;;27.23;19.92;;;18.10;99.90;;;;;;5050351;28;20403;-58
2022/06/05 05:49:52;;;;;;;23.73;17.85;;;18.10;99.90;;;;;;5049800;28;20537;-56
2022/06/05 05:52:18;;;;;;;29.33;19.95;;;17.90;99.90;;;;;;5050404;28;20847;-58
2022/06/05 05:54:43;;;;;;;28.13;20.48;;;17.80;99.90;;;;;;5050249;28;20381;-57
2022/06/05 05:57:09;;;;;;;27.30;19.77;;;17.80;99.90;;;;;;5049596;28;20986;-58
2022/06/05 05:59:35;;;;;;;27.33;18.60;;;17.70;99.90;;;;;;5050079;28;20377;-58
2022/06/05 06:02:01;;;;;;;22.48;16.85;;;17.80;99.90;;;;;;5049004;28;20417;-58
2022/06/05 06:04:27;;;;;;;22.83;16.15;;;17.90;99.90;;;;;;5048478;28;20401;-58
2022/06/05 06:06:53;;;;;;;24.40;18.20;;;17.90;99.90;;;;;;5048400;28;20428;-57
2022/06/05 06:09:20;;;;;;;26.27;18.77;;;17.90;99.90;;;;;;5049634;28;20386;-58
2022/06/05 06:11:46;;;;;;;25.48;19.40;;;18.00;99.90;;;;;;5050135;28;20923;-58
2022/06/05 06:14:12;;;;;;;28.58;20.40;;;18.00;99.90;;;;;;5049285;28;20448;-58
2022/06/05 06:16:38;;;;;;;26.52;19.77;;;18.00;99.90;;;;;;5032093;28;20455;-58
2022/06/05 06:19:04;;;;;;;30.33;21.13;;;18.00;99.90;;;;;;5049185;28;20773;-57
2022/06/05 06:21:31;;;;;;;29.65;20.73;;;18.10;99.90;;;;;;5049597;28;20436;-58
2022/06/05 06:23:56;;;;;;;28.35;20.75;;;18.10;99.90;;;;;;5048503;28;20418;-58
2022/06/05 06:26:22;;;;;;;28.50;21.00;;;18.20;99.90;;;;;;5049786;28;20878;-59
2022/06/05 06:28:48;;;;;;;30.00;21.20;;;18.20;99.90;;;;;;5049679;28;20420;-57
2022/06/05 06:31:17;;;;;;;32.47;23.17;;;18.10;99.90;;;;;;5048535;28;20493;-58
2022/06/05 06:33:45;;;;;;;31.58;23.00;;;18.00;99.90;;;;;;5050065;28;20370;-57
2022/06/05 06:36:12;;;;;;;31.30;22.92;;;18.10;99.90;;;;;;5047890;28;20405;-57
2022/06/05 06:38:38;;;;;;;32.30;22.27;;;18.00;99.90;;;;;;5045649;28;20874;-57
2022/06/05 06:41:07;;;;;;;30.25;21.77;;;17.90;99.90;;;;;;5046201;28;20429;-57
2022/06/05 06:43:34;;;;;;;30.30;21.80;;;17.90;99.90;;;;;;5032762;28;20720;-57
2022/06/05 06:46:00;;;;;;;32.88;22.38;;;17.90;99.90;;;;;;5048681;28;20466;-57
2022/06/05 06:48:27;;;;;;;30.42;22.10;;;17.90;99.90;;;;;;5049145;28;20397;-54
2022/06/05 06:50:54;;;;;;;28.52;20.35;;;17.90;99.90;;;;;;5049035;28;20384;-59
2022/06/05 06:53:20;;;;;;;30.60;22.42;;;17.90;99.90;;;;;;5049134;28;20758;-53
2022/06/05 06:55:46;;;;;;;28.85;20.20;;;17.90;99.90;;;;;;5049018;28;20390;-53
2022/06/05 06:58:12;;;;;;;27.98;20.60;;;18.00;99.90;;;;;;5048559;28;20981;-53
2022/06/05 07:00:38;;;;;;;29.27;21.37;;;18.10;99.90;;;;;;5048628;28;20378;-53
2022/06/05 07:03:04;;;;;;;26.47;20.10;;;18.10;99.90;;;;;;5045212;28;20405;-58
2022/06/05 07:05:29;;;;;;;30.17;22.02;;;18.00;99.90;;;;;;5040832;28;20835;-58
2022/06/05 07:07:55;;;;;;;31.40;22.13;;;17.90;99.90;;;;;;5042788;28;20423;-57
2022/06/05 07:10:21;;;;;;;33.05;23.65;;;17.90;99.90;;;;;;5036076;28;20379;-57
2022/06/05 07:12:48;;;;;;;30.38;21.33;;;17.90;99.90;;;;;;5040195;28;20402;-58
2022/06/05 07:15:16;;;;;;;31.45;22.10;;;17.90;99.90;;;;;;5028597;28;20395;-58
2022/06/05 07:17:42;;;;;;;29.27;21.80;;;18.00;99.90;;;;;;5035475;28;20810;-57
2022/06/05 07:20:08;;;;;;;31.55;22.35;;;18.00;99.90;;;;;;5046109;28;20454;-57
2022/06/05 07:22:34;;;;;;;30.60;23.25;;;17.90;99.90;;;;;;5041491;28;20411;-58
2022/06/05 07:25:00;;;;;;;33.85;23.75;;;17.80;99.90;;;;;;5040601;28;20451;-57
2022/06/05 07:27:27;;;;;;;30.27;22.42;;;17.80;99.90;;;;;;5028957;28;20772;-58
2022/06/05 07:29:53;;;;;;;33.00;22.40;;;17.80;99.90;;;;;;5045699;28;20450;-57
2022/06/05 07:32:20;;;;;;;31.48;21.10;;;17.90;99.90;;;;;;5031184;28;20403;-58
2022/06/05 07:34:46;;;;;;;30.13;22.00;;;17.80;99.90;;;;;;5028932;28;20402;-59
2022/06/05 07:37:15;;;;;;;29.63;21.23;;;17.80;99.90;;;;;;5043239;28;21190;-58
2022/06/05 07:39:44;;;;;;;27.83;20.87;;;17.90;99.90;;;;;;5042532;28;20409;-57
2022/06/05 07:42:10;;;;;;;27.90;20.43;;;17.90;99.90;;;;;;5042183;28;20963;-58
2022/06/05 07:44:36;;;;;;;33.42;21.48;;;17.90;99.90;;;;;;5054374;28;20381;-58
2022/06/05 07:47:07;;;;;;;28.75;21.00;;;18.00;99.90;;;;;;5034773;28;20839;-57
2022/06/05 07:49:34;;;;;;;28.17;20.67;;;18.10;99.90;;;;;;5047663;28;20389;-57
2022/06/05 07:54:45;;;;;;;28.70;19.90;;;18.00;99.90;;;;;;5040517;28;20927;-57
2022/06/05 07:57:13;;;;;;;28.27;20.58;;;18.00;99.90;;;;;;5040864;28;20477;-57
2022/06/05 07:59:42;;;;;;;25.10;18.70;;;17.90;99.90;;;;;;5046802;28;20416;-57
2022/06/05 08:02:14;;;;;;;26.42;18.30;;;18.10;99.90;;;;;;5046415;28;20483;-57
2022/06/05 08:04:41;;;;;;;25.70;18.52;;;18.20;99.90;;;;;;5047372;28;20961;-57
2022/06/05 08:07:09;;;;;;;22.05;16.02;;;18.30;99.90;;;;;;5042923;28;20427;-57
2022/06/05 08:09:35;;;;;;;16.00;11.73;;;18.30;99.90;;;;;;5017856;28;20439;-57
2022/06/05 08:12:01;;;;;;;16.02;11.70;;;18.40;99.90;;;;;;5045986;28;20398;-58
2022/06/05 08:14:27;;;;;;;14.30;9.90;;;18.50;99.90;;;;;;5050829;28;20404;-58
2022/06/05 08:16:53;;;;;;;13.00;9.40;;;18.50;99.90;;;;;;5051659;28;21007;-56
2022/06/05 08:19:22;;;;;;;14.05;9.48;;;18.60;99.90;;;;;;5049731;28;20484;-57
2022/06/05 08:21:48;;;;;;;14.48;9.60;;;18.80;99.90;;;;;;5051479;28;20397;-57
2022/06/05 08:24:15;;;;;;;13.80;10.00;;;18.90;99.90;;;;;;5045463;28;20488;-57
2022/06/05 08:26:41;;;;;;;15.70;10.70;;;19.10;99.90;;;;;;5049396;28;20496;-58
2022/06/05 08:29:07;;;;;;;13.82;10.48;;;19.30;99.90;;;;;;5046447;28;20877;-57
2022/06/05 08:31:33;;;;;;;16.27;10.85;;;19.40;99.90;;;;;;5047365;28;20401;-57
2022/06/05 08:34:01;;;;;;;18.00;11.23;;;19.60;99.90;;;;;;5047229;28;20429;-57
2022/06/05 08:36:27;;;;;;;15.13;11.10;;;19.70;99.90;;;;;;5048126;28;20466;-58
2022/06/05 08:42:11;;;;;;;13.13;6.45;;;20.10;99.90;;;;;;5047335;28;20405;-57
2022/06/05 08:44:48;;;;;;;9.43;5.85;;;20.60;99.90;;;;;;5049906;28;20817;-58
2022/06/05 08:47:20;;;;;;;10.80;5.20;;;21.10;88.30;;;;;;5047877;28;20415;-58
2022/06/05 08:49:57;;;;;;;9.60;4.95;;;21.30;1.00;;;;;;5048048;28;20940;-62
2022/06/05 08:52:39;;;;;;;13.15;4.82;;;21.70;1.00;;;;;;5046783;28;20445;-58
2022/06/05 08:55:15;;;;;;;7.50;4.10;;;22.30;1.00;;;;;;5047160;28;20430;-57
2022/06/05 08:58:23;;;;;;;9.93;3.70;;;22.10;99.90;;;;;;5044880;28;20431;-58
2022/06/05 09:01:23;;;;;;;11.05;3.80;;;21.90;1.00;;;;;;5016137;28;20911;-57
2022/06/05 09:04:13;;;;;;;7.18;3.55;;;21.40;1.00;;;;;;5026666;28;20869;-58
2022/06/05 09:06:45;;;;;;;7.25;3.03;;;21.10;1.00;;;;;;5046118;28;20437;-56
2022/06/05 09:09:20;;;;;;;5.85;3.00;;;21.00;1.00;;;;;;5039949;28;20567;-55
2022/06/05 09:12:16;;;;;;;7.13;2.95;;;21.20;1.00;;;;;;5037377;28;20417;-58
2022/06/05 09:14:49;;;;;;;8.82;3.20;;;21.60;1.00;;;;;;5038574;28;20413;-58
2022/06/05 09:17:19;;;;;;;6.57;2.90;;;21.80;99.90;;;;;;5044177;28;20480;-58
2022/06/05 09:19:47;;;;;;;6.32;2.85;;;22.00;99.90;;;;;;5045741;28;20484;-58
2022/06/05 09:22:40;;;;;;;6.40;2.60;;;21.90;99.90;;;;;;5046524;28;20894;-58
2022/06/05 09:25:13;;;;;;;6.47;2.90;;;22.30;99.90;;;;;;5043740;28;20491;-58
2022/06/05 09:27:58;;;;;;;7.65;2.80;;;22.50;99.90;;;;;;5040996;28;20441;-59
2022/06/05 09:30:51;;;;;;;6.80;2.85;;;22.50;1.00;;;;;;5048193;28;20401;-59
2022/06/05 09:33:30;;;;;;;6.00;2.58;;;23.30;1.00;;;;;;5034843;28;20403;-58
2022/06/05 09:35:58;;;;;;;8.95;2.40;;;24.00;1.00;;;;;;5030412;28;20411;-58
2022/06/05 09:38:31;;;;;;;6.45;2.45;;;24.00;99.90;;;;;;5042314;28;20535;-59
2022/06/05 09:41:16;;;;;;;7.47;2.80;;;23.80;1.00;;;;;;5045831;28;20409;-58
2022/06/05 09:44:13;;;;;;;6.45;2.30;;;23.40;1.00;;;;;;5047060;28;20523;-61
2022/06/05 09:46:59;;;;;;;6.30;2.50;;;23.70;99.90;;;;;;5046599;28;20781;-59
2022/06/05 09:49:31;;;;;;;7.43;1.98;;;25.00;30.00;;;;;;5049171;28;20517;-59
2022/06/05 09:52:03;;;;;;;7.75;2.47;;;25.20;99.90;;;;;;5047531;28;20417;-57
2022/06/05 09:54:31;;;;;;;6.72;2.33;;;24.80;99.90;;;;;;5045241;28;20406;-61
2022/06/05 10:00:02;;;;;;;7.28;2.30;;;24.20;99.90;;;;;;5046633;28;20540;-60
2022/06/05 10:02:29;;;;;;;8.47;2.00;;;23.90;99.90;;;;;;5047846;28;20393;-59
2022/06/05 10:04:55;;;;;;;6.30;2.20;;;23.80;1.00;;;;;;5047695;28;20402;-58
2022/06/05 10:07:31;;;;;;;8.23;1.92;;;24.00;1.00;;;;;;5047278;28;20421;-61
2022/06/05 10:10:02;;;;;;;8.82;2.17;;;24.00;1.00;;;;;;5046179;28;20409;-58
2022/06/05 10:12:37;;;;;;;5.65;1.85;;;24.20;1.00;;;;;;5045937;28;20422;-62
2022/06/05 10:15:26;;;;;;;10.60;2.38;;;24.00;1.00;;;;;;5046377;28;20420;-59
2022/06/05 10:18:09;;;;;;;6.43;2.30;;;24.10;99.90;;;;;;5046410;28;20417;-61
2022/06/05 10:20:56;;;;;;;7.50;2.00;;;24.30;99.90;;;;;;5048633;28;20405;-60
2022/06/05 10:23:51;;;;;;;6.43;1.90;;;24.60;99.90;;;;;;5048783;28;20413;-60
2022/06/05 10:26:33;;;;;;;6.20;1.70;;;25.00;99.90;;;;;;5046346;28;20413;-60
2022/06/05 10:29:26;;;;;;;6.40;2.08;;;25.10;99.90;;;;;;5046827;28;20381;-60
2022/06/05 10:31:51;;;;;;;6.45;1.70;;;25.60;99.90;;;;;;5049208;28;20401;-60
2022/06/05 10:34:44;;;;;;;7.90;2.10;;;25.90;92.10;;;;;;5048266;28;20962;-60
2022/06/05 10:37:18;;;;;;;7.57;2.30;;;25.60;92.00;;;;;;5045008;28;20439;-60
2022/06/05 10:39:53;;;;;;;6.60;1.98;;;25.20;99.90;;;;;;5048574;28;20464;-58
2022/06/05 10:42:47;;;;;;;7.30;2.30;;;25.00;99.90;;;;;;5046573;28;20508;-60
2022/06/05 10:45:21;;;;;;;9.30;2.40;;;24.50;99.90;;;;;;5041810;28;20936;-61
2022/06/05 10:47:56;;;;;;;6.55;2.03;;;24.20;99.90;;;;;;5045603;28;20435;-62
2022/06/05 10:50:43;;;;;;;7.50;2.30;;;24.10;1.00;;;;;;5043329;28;20413;-62
2022/06/05 10:53:23;;;;;;;7.63;2.38;;;24.10;1.00;;;;;;5042328;28;20498;-62
2022/06/05 10:56:07;;;;;;;5.70;1.90;;;24.10;15.20;;;;;;5035420;28;20467;-62
2022/06/05 10:58:55;;;;;;;7.10;1.80;;;24.00;1.00;;;;;;5037812;28;20495;-60
2022/06/05 11:01:30;;;;;;;7.20;2.60;;;24.10;99.90;;;;;;5044620;28;20881;-60
2022/06/05 11:04:16;;;;;;;7.60;2.50;;;23.90;99.90;;;;;;5045982;28;20413;-58
2022/06/05 11:07:26;;;;;;;8.57;3.00;;;23.50;99.90;;;;;;5043930;28;20421;-61
2022/06/05 11:10:02;;;;;;;7.78;4.00;;;23.50;1.00;;;;;;5041644;28;21019;-61
2022/06/05 11:15:35;;;;;;;7.97;4.10;;;23.10;1.00;;;;;;5044705;28;20431;-62
2022/06/05 11:18:27;;;;;;;8.25;4.25;;;23.00;99.90;;;;;;5044596;28;20394;-59
2022/06/05 11:20:57;;;;;;;8.50;3.67;;;22.90;1.00;;;;;;5048837;28;20841;-62
2022/06/05 11:23:28;;;;;;;9.30;4.30;;;22.80;1.00;;;;;;5047668;28;20531;-62
2022/06/05 11:26:17;;;;;;;8.18;3.80;;;22.60;1.00;;;;;;5045715;28;20414;-61
2022/06/05 11:28:42;;;;;;;8.80;4.00;;;22.60;1.00;;;;;;5048070;28;20624;-62
2022/06/05 11:31:15;;;;;;;9.40;4.30;;;22.80;1.00;;;;;;5046676;28;20492;-62
2022/06/05 11:33:52;;;;;;;9.80;4.43;;;22.80;20.50;;;;;;5029180;28;20405;-60
2022/06/05 11:36:27;;;;;;;9.00;4.40;;;22.70;1.00;;;;;;5041710;28;20404;-62
2022/06/05 11:39:03;;;;;;;9.48;4.18;;;22.70;1.00;;;;;;5044759;28;20408;-63
2022/06/05 11:41:56;;;;;;;8.75;4.65;;;22.80;1.00;;;;;;5046793;28;20427;-62
2022/06/05 11:44:46;;;;;;;9.60;4.40;;;22.70;1.00;;;;;;5047139;28;20436;-62
2022/06/05 11:47:47;;;;;;;9.25;4.50;;;22.60;1.00;;;;;;5047128;28;20452;-62
2022/06/05 11:50:13;;;;;;;10.48;4.70;;;22.60;99.90;;;;;;5047919;28;20405;-62
2022/06/05 11:52:56;;;;;;;8.57;4.70;;;22.90;21.00;;;;;;5049714;28;20975;-63
2022/06/05 11:55:32;;;;;;;10.00;4.30;;;23.20;99.90;;;;;;5031366;28;20420;-61
2022/06/05 11:58:11;;;;;;;10.93;4.35;;;23.60;62.50;;;;;;5047027;28;20480;-58
2022/06/05 12:00:50;;;;;;;8.68;4.00;;;23.90;99.90;;;;;;5051902;28;20432;-63
2022/06/05 12:03:36;;;;;;;8.32;3.45;;;24.30;1.00;;;;;;5048841;28;20954;-63
2022/06/05 12:06:26;;;;;;;7.63;3.20;;;24.30;99.90;;;;;;5043292;28;20435;-63
2022/06/05 12:08:56;;;;;;;7.85;2.95;;;24.40;91.50;;;;;;5047947;28;20754;-63
2022/06/05 12:11:40;;;;;;;8.77;3.10;;;24.60;1.00;;;;;;5048973;28;20502;-63
2022/06/05 12:14:14;;;;;;;7.93;2.80;;;24.50;1.00;;;;;;5046740;28;20416;-64
2022/06/05 12:16:50;;;;;;;7.78;3.20;;;24.70;99.90;;;;;;5051501;28;20440;-62
2022/06/05 12:19:51;;;;;;;8.60;3.20;;;24.90;99.90;;;;;;5049041;28;20420;-63
2022/06/05 12:22:54;;;;;;;7.78;3.10;;;24.80;99.90;;;;;;5025467;28;20488;-62
2022/06/05 12:25:38;;;;;;;8.90;3.13;;;25.00;99.90;;;;;;5040990;28;20399;-61
2022/06/05 12:28:25;;;;;;;8.77;3.30;;;25.30;99.90;;;;;;5030843;28;20490;-63
2022/06/05 12:31:17;;;;;;;10.05;3.47;;;24.80;99.90;;;;;;5031834;28;20423;-63
2022/06/05 12:34:02;;;;;;;9.48;3.83;;;24.80;99.90;;;;;;5031957;28;20445;-64
2022/06/05 12:37:12;;;;;;;9.63;3.15;;;25.00;99.90;;;;;;5037904;28;20404;-63
2022/06/05 12:39:45;;;;;;;6.40;2.70;;;24.80;99.90;;;;;;5005583;28;20445;-65
2022/06/05 12:42:30;;;;;;;7.85;3.10;;;24.60;99.90;;;;;;5040963;28;20401;-63
2022/06/05 12:44:59;;;;;;;7.90;2.78;;;24.90;99.90;;;;;;5036246;28;20402;-59
2022/06/05 12:47:55;;;;;;;9.13;3.00;;;25.00;99.90;;;;;;5052516;28;20772;-62
2022/06/05 12:50:58;;;;;;;7.50;2.60;;;25.30;99.90;;;;;;5055536;28;20517;-64
2022/06/05 12:53:46;;;;;;;8.27;2.70;;;25.60;78.00;;;;;;5045621;28;20399;-64
2022/06/05 12:56:26;;;;;;;8.90;2.70;;;25.60;1.00;;;;;;5051923;28;20493;-63
2022/06/05 12:59:01;;;;;;;8.70;2.70;;;25.30;1.00;;;;;;5047006;28;20440;-65
2022/06/05 13:01:34;;;;;;;9.57;2.67;;;25.50;1.00;;;;;;5050239;28;20851;-65
2022/06/05 13:04:32;;;;;;;9.40;2.83;;;25.80;1.00;;;;;;5049168;28;20422;-63
2022/06/05 13:07:08;;;;;;;7.93;2.50;;;25.80;1.00;;;;;;5049274;28;20459;-59
2022/06/05 13:09:41;;;;;;;7.70;2.40;;;26.00;1.00;;;;;;5049345;28;20389;-65
2022/06/05 13:12:32;;;;;;;9.43;2.40;;;26.00;1.00;;;;;;5052075;28;20471;-64
2022/06/05 13:15:31;;;;;;;6.47;2.50;;;26.20;1.00;;;;;;5048112;28;20390;-58
2022/06/05 13:18:22;;;;;;;9.10;2.22;;;26.10;1.00;;;;;;5044755;28;20510;-57
2022/06/05 13:21:21;;;;;;;8.27;2.60;;;25.90;1.00;;;;;;5034230;28;20396;-63
2022/06/05 13:24:13;;;;;;;8.50;2.50;;;25.80;1.00;;;;;;5043043;28;20910;-63
2022/06/05 13:27:03;;;;;;;7.50;1.98;;;25.70;1.00;;;;;;5041376;28;20751;-63